sensor_id;sensor_type;location;lat;lon;timestamp;P1;durP1;ratioP1;P2;durP2;ratioP2
77018;SDS011;66044;53.142;17.962;2024-03-02T00:00:50;44.70;;;25.60;;
77018;SDS011;66044;53.142;17.962;2024-03-02T00:03:38;45.80;;;25.60;;
77018;SDS011;66044;53.142;17.962;2024-03-02T00:06:08;53.40;;;29.70;;
77018;SDS011;66044;53.142;17.962;2024-03-02T00:08:34;53.80;;;28.90;;
77018;SDS011;66044;53.142;17.962;2024-03-02T00:11:00;54.00;;;28.50;;
77018;SDS011;66044;53.142;17.962;2024-03-02T00:13:28;49.10;;;27.10;;
77018;SDS011;66044;53.142;17.962;2024-03-02T00:15:57;44.40;;;25.20;;
77018;SDS011;66044;53.142;17.962;2024-03-02T00:18:27;52.50;;;27.30;;
77018;SDS011;66044;53.142;17.962;2024-03-02T00:20:57;60.90;;;31.40;;
77018;SDS011;66044;53.142;17.962;2024-03-02T00:23:24;58.30;;;29.40;;
77018;SDS011;66044;53.142;17.962;2024-03-02T00:25:53;61.30;;;31.60;;
77018;SDS011;66044;53.142;17.962;2024-03-02T00:28:21;59.70;;;30.70;;
77018;SDS011;66044;53.142;17.962;2024-03-02T00:33:32;59.70;;;30.60;;
77018;SDS011;66044;53.142;17.962;2024-03-02T00:35:58;50.80;;;27.50;;
77018;SDS011;66044;53.142;17.962;2024-03-02T00:38:25;49.50;;;27.10;;
77018;SDS011;66044;53.142;17.962;2024-03-02T00:40:53;54.20;;;28.20;;
77018;SDS011;66044;53.142;17.962;2024-03-02T00:43:41;49.30;;;25.20;;
77018;SDS011;66044;53.142;17.962;2024-03-02T00:46:20;56.00;;;29.10;;
77018;SDS011;66044;53.142;17.962;2024-03-02T00:48:48;59.30;;;30.80;;
77018;SDS011;66044;53.142;17.962;2024-03-02T00:51:21;48.50;;;25.80;;
77018;SDS011;66044;53.142;17.962;2024-03-02T00:53:49;44.80;;;25.20;;
77018;SDS011;66044;53.142;17.962;2024-03-02T00:56:16;50.70;;;26.70;;
77018;SDS011;66044;53.142;17.962;2024-03-02T00:58:42;57.20;;;28.60;;
77018;SDS011;66044;53.142;17.962;2024-03-02T01:01:08;53.10;;;28.00;;
77018;SDS011;66044;53.142;17.962;2024-03-02T01:03:35;48.50;;;26.30;;
77018;SDS011;66044;53.142;17.962;2024-03-02T01:06:01;63.80;;;32.50;;
77018;SDS011;66044;53.142;17.962;2024-03-02T01:08:27;56.20;;;29.20;;
77018;SDS011;66044;53.142;17.962;2024-03-02T01:10:53;52.00;;;26.50;;
77018;SDS011;66044;53.142;17.962;2024-03-02T01:13:21;51.10;;;27.80;;
77018;SDS011;66044;53.142;17.962;2024-03-02T01:15:48;54.70;;;28.80;;
77018;SDS011;66044;53.142;17.962;2024-03-02T01:18:13;48.30;;;26.20;;
77018;SDS011;66044;53.142;17.962;2024-03-02T01:20:39;52.70;;;26.80;;
77018;SDS011;66044;53.142;17.962;2024-03-02T01:23:06;53.40;;;28.80;;
77018;SDS011;66044;53.142;17.962;2024-03-02T01:25:31;47.90;;;25.60;;
77018;SDS011;66044;53.142;17.962;2024-03-02T01:27:57;60.30;;;29.00;;
77018;SDS011;66044;53.142;17.962;2024-03-02T01:30:23;52.50;;;27.90;;
77018;SDS011;66044;53.142;17.962;2024-03-02T01:32:49;59.20;;;29.20;;
77018;SDS011;66044;53.142;17.962;2024-03-02T01:35:15;47.80;;;25.10;;
77018;SDS011;66044;53.142;17.962;2024-03-02T01:37:41;56.00;;;29.80;;
77018;SDS011;66044;53.142;17.962;2024-03-02T01:40:07;60.40;;;30.50;;
77018;SDS011;66044;53.142;17.962;2024-03-02T01:42:37;60.80;;;31.00;;
77018;SDS011;66044;53.142;17.962;2024-03-02T01:45:05;62.50;;;31.10;;
77018;SDS011;66044;53.142;17.962;2024-03-02T01:47:31;56.00;;;28.10;;
77018;SDS011;66044;53.142;17.962;2024-03-02T01:49:58;57.00;;;30.20;;
77018;SDS011;66044;53.142;17.962;2024-03-02T01:52:24;52.20;;;26.20;;
77018;SDS011;66044;53.142;17.962;2024-03-02T01:54:50;47.20;;;25.30;;
77018;SDS011;66044;53.142;17.962;2024-03-02T01:57:16;58.70;;;29.70;;
77018;SDS011;66044;53.142;17.962;2024-03-02T01:59:43;59.10;;;31.30;;
77018;SDS011;66044;53.142;17.962;2024-03-02T02:02:09;58.60;;;29.80;;
77018;SDS011;66044;53.142;17.962;2024-03-02T02:04:35;45.10;;;25.00;;
77018;SDS011;66044;53.142;17.962;2024-03-02T02:07:01;58.50;;;29.00;;
77018;SDS011;66044;53.142;17.962;2024-03-02T02:09:27;47.10;;;25.50;;
77018;SDS011;66044;53.142;17.962;2024-03-02T02:11:53;58.10;;;29.90;;
77018;SDS011;66044;53.142;17.962;2024-03-02T02:14:19;51.10;;;27.50;;
77018;SDS011;66044;53.142;17.962;2024-03-02T02:16:44;57.90;;;31.00;;
77018;SDS011;66044;53.142;17.962;2024-03-02T02:19:10;58.00;;;30.50;;
77018;SDS011;66044;53.142;17.962;2024-03-02T02:21:36;57.60;;;30.50;;
77018;SDS011;66044;53.142;17.962;2024-03-02T02:24:02;59.50;;;30.60;;
77018;SDS011;66044;53.142;17.962;2024-03-02T02:26:29;54.90;;;28.60;;
77018;SDS011;66044;53.142;17.962;2024-03-02T02:28:55;58.40;;;29.30;;
77018;SDS011;66044;53.142;17.962;2024-03-02T02:31:21;48.20;;;25.80;;
77018;SDS011;66044;53.142;17.962;2024-03-02T02:33:46;49.30;;;26.10;;
77018;SDS011;66044;53.142;17.962;2024-03-02T02:36:12;57.80;;;28.90;;
77018;SDS011;66044;53.142;17.962;2024-03-02T02:38:39;58.90;;;30.30;;
77018;SDS011;66044;53.142;17.962;2024-03-02T02:41:08;48.00;;;25.80;;
77018;SDS011;66044;53.142;17.962;2024-03-02T02:43:34;49.30;;;26.80;;
77018;SDS011;66044;53.142;17.962;2024-03-02T02:46:00;50.10;;;25.90;;
77018;SDS011;66044;53.142;17.962;2024-03-02T02:48:25;53.30;;;27.60;;
77018;SDS011;66044;53.142;17.962;2024-03-02T02:50:51;54.30;;;27.60;;
77018;SDS011;66044;53.142;17.962;2024-03-02T02:53:17;45.40;;;24.00;;
77018;SDS011;66044;53.142;17.962;2024-03-02T02:55:43;50.30;;;27.60;;
77018;SDS011;66044;53.142;17.962;2024-03-02T02:58:09;50.50;;;27.10;;
77018;SDS011;66044;53.142;17.962;2024-03-02T03:00:35;56.00;;;28.20;;
77018;SDS011;66044;53.142;17.962;2024-03-02T03:03:01;51.70;;;27.50;;
77018;SDS011;66044;53.142;17.962;2024-03-02T03:05:28;44.70;;;23.50;;
77018;SDS011;66044;53.142;17.962;2024-03-02T03:07:54;54.20;;;28.60;;
77018;SDS011;66044;53.142;17.962;2024-03-02T03:10:20;47.90;;;25.40;;
77018;SDS011;66044;53.142;17.962;2024-03-02T03:12:47;50.10;;;25.90;;
77018;SDS011;66044;53.142;17.962;2024-03-02T03:15:13;51.10;;;25.80;;
77018;SDS011;66044;53.142;17.962;2024-03-02T03:17:40;49.40;;;25.10;;
77018;SDS011;66044;53.142;17.962;2024-03-02T03:20:06;54.30;;;27.40;;
77018;SDS011;66044;53.142;17.962;2024-03-02T03:22:35;55.60;;;28.50;;
77018;SDS011;66044;53.142;17.962;2024-03-02T03:25:03;48.40;;;26.10;;
77018;SDS011;66044;53.142;17.962;2024-03-02T03:27:29;50.20;;;27.10;;
77018;SDS011;66044;53.142;17.962;2024-03-02T03:29:55;48.40;;;25.10;;
77018;SDS011;66044;53.142;17.962;2024-03-02T03:32:21;44.20;;;23.40;;
77018;SDS011;66044;53.142;17.962;2024-03-02T03:34:47;49.50;;;25.50;;
77018;SDS011;66044;53.142;17.962;2024-03-02T03:37:15;44.30;;;24.00;;
77018;SDS011;66044;53.142;17.962;2024-03-02T03:39:41;50.50;;;26.60;;
77018;SDS011;66044;53.142;17.962;2024-03-02T03:42:07;45.50;;;24.90;;
77018;SDS011;66044;53.142;17.962;2024-03-02T03:44:33;42.60;;;23.20;;
77018;SDS011;66044;53.142;17.962;2024-03-02T03:46:59;45.60;;;24.70;;
77018;SDS011;66044;53.142;17.962;2024-03-02T03:49:27;36.90;;;20.30;;
77018;SDS011;66044;53.142;17.962;2024-03-02T03:51:53;46.80;;;24.70;;
77018;SDS011;66044;53.142;17.962;2024-03-02T03:54:19;36.60;;;21.50;;
77018;SDS011;66044;53.142;17.962;2024-03-02T03:56:45;42.70;;;22.50;;
77018;SDS011;66044;53.142;17.962;2024-03-02T03:59:11;39.10;;;22.20;;
77018;SDS011;66044;53.142;17.962;2024-03-02T04:01:37;35.70;;;21.00;;
77018;SDS011;66044;53.142;17.962;2024-03-02T04:04:03;34.30;;;19.60;;
77018;SDS011;66044;53.142;17.962;2024-03-02T04:06:29;40.70;;;23.30;;
77018;SDS011;66044;53.142;17.962;2024-03-02T04:08:55;42.30;;;22.20;;
77018;SDS011;66044;53.142;17.962;2024-03-02T04:11:22;43.50;;;22.50;;
77018;SDS011;66044;53.142;17.962;2024-03-02T04:13:48;39.70;;;21.80;;
77018;SDS011;66044;53.142;17.962;2024-03-02T04:16:14;36.20;;;20.40;;
77018;SDS011;66044;53.142;17.962;2024-03-02T04:18:40;40.90;;;22.00;;
77018;SDS011;66044;53.142;17.962;2024-03-02T04:21:06;39.80;;;22.50;;
77018;SDS011;66044;53.142;17.962;2024-03-02T04:23:32;37.40;;;20.30;;
77018;SDS011;66044;53.142;17.962;2024-03-02T04:25:58;32.80;;;19.10;;
77018;SDS011;66044;53.142;17.962;2024-03-02T04:28:24;31.30;;;18.70;;
77018;SDS011;66044;53.142;17.962;2024-03-02T04:30:51;29.50;;;17.00;;
77018;SDS011;66044;53.142;17.962;2024-03-02T04:33:18;36.40;;;20.90;;
77018;SDS011;66044;53.142;17.962;2024-03-02T04:35:44;34.60;;;19.90;;
77018;SDS011;66044;53.142;17.962;2024-03-02T04:38:10;36.50;;;20.60;;
77018;SDS011;66044;53.142;17.962;2024-03-02T04:40:35;28.70;;;17.10;;
77018;SDS011;66044;53.142;17.962;2024-03-02T04:43:01;38.10;;;20.70;;
77018;SDS011;66044;53.142;17.962;2024-03-02T04:45:28;36.00;;;21.50;;
77018;SDS011;66044;53.142;17.962;2024-03-02T04:47:54;38.20;;;20.60;;
77018;SDS011;66044;53.142;17.962;2024-03-02T04:50:20;31.40;;;18.50;;
77018;SDS011;66044;53.142;17.962;2024-03-02T04:52:46;34.10;;;18.70;;
77018;SDS011;66044;53.142;17.962;2024-03-02T04:55:11;31.70;;;17.90;;
77018;SDS011;66044;53.142;17.962;2024-03-02T04:57:56;29.50;;;16.60;;
77018;SDS011;66044;53.142;17.962;2024-03-02T05:00:22;33.50;;;18.60;;
77018;SDS011;66044;53.142;17.962;2024-03-02T05:02:47;30.80;;;18.60;;
77018;SDS011;66044;53.142;17.962;2024-03-02T05:05:13;35.40;;;19.10;;
77018;SDS011;66044;53.142;17.962;2024-03-02T05:07:42;37.00;;;20.90;;
77018;SDS011;66044;53.142;17.962;2024-03-02T05:10:12;36.40;;;20.20;;
77018;SDS011;66044;53.142;17.962;2024-03-02T05:12:38;30.20;;;18.10;;
77018;SDS011;66044;53.142;17.962;2024-03-02T05:15:10;34.70;;;19.20;;
77018;SDS011;66044;53.142;17.962;2024-03-02T05:17:44;29.60;;;16.70;;
77018;SDS011;66044;53.142;17.962;2024-03-02T05:20:10;33.60;;;19.70;;
77018;SDS011;66044;53.142;17.962;2024-03-02T05:22:38;34.80;;;20.10;;
77018;SDS011;66044;53.142;17.962;2024-03-02T05:25:05;33.50;;;19.10;;
77018;SDS011;66044;53.142;17.962;2024-03-02T05:27:31;30.10;;;17.20;;
77018;SDS011;66044;53.142;17.962;2024-03-02T05:29:58;27.60;;;16.20;;
77018;SDS011;66044;53.142;17.962;2024-03-02T05:32:26;34.80;;;20.30;;
77018;SDS011;66044;53.142;17.962;2024-03-02T05:34:52;33.10;;;19.90;;
77018;SDS011;66044;53.142;17.962;2024-03-02T05:37:18;29.00;;;17.30;;
77018;SDS011;66044;53.142;17.962;2024-03-02T05:39:44;38.20;;;21.10;;
77018;SDS011;66044;53.142;17.962;2024-03-02T05:42:11;35.70;;;21.10;;
77018;SDS011;66044;53.142;17.962;2024-03-02T05:44:37;28.90;;;17.90;;
77018;SDS011;66044;53.142;17.962;2024-03-02T05:47:03;36.20;;;20.50;;
77018;SDS011;66044;53.142;17.962;2024-03-02T05:49:29;36.30;;;18.40;;
77018;SDS011;66044;53.142;17.962;2024-03-02T05:51:55;34.00;;;19.60;;
77018;SDS011;66044;53.142;17.962;2024-03-02T05:54:21;34.50;;;20.80;;
77018;SDS011;66044;53.142;17.962;2024-03-02T05:56:47;38.90;;;23.50;;
77018;SDS011;66044;53.142;17.962;2024-03-02T05:59:13;38.50;;;22.50;;
77018;SDS011;66044;53.142;17.962;2024-03-02T06:01:39;41.10;;;23.40;;
77018;SDS011;66044;53.142;17.962;2024-03-02T06:04:06;33.80;;;19.30;;
77018;SDS011;66044;53.142;17.962;2024-03-02T06:06:32;37.10;;;21.70;;
77018;SDS011;66044;53.142;17.962;2024-03-02T06:09:02;34.60;;;19.40;;
77018;SDS011;66044;53.142;17.962;2024-03-02T06:11:38;36.90;;;21.50;;
77018;SDS011;66044;53.142;17.962;2024-03-02T06:14:08;33.60;;;19.60;;
77018;SDS011;66044;53.142;17.962;2024-03-02T06:16:34;38.50;;;22.20;;
77018;SDS011;66044;53.142;17.962;2024-03-02T06:19:02;37.70;;;20.10;;
77018;SDS011;66044;53.142;17.962;2024-03-02T06:21:28;37.80;;;22.70;;
77018;SDS011;66044;53.142;17.962;2024-03-02T06:23:59;35.70;;;21.10;;
77018;SDS011;66044;53.142;17.962;2024-03-02T06:26:25;36.90;;;21.20;;
77018;SDS011;66044;53.142;17.962;2024-03-02T06:28:50;34.30;;;21.60;;
77018;SDS011;66044;53.142;17.962;2024-03-02T06:31:17;34.30;;;20.20;;
77018;SDS011;66044;53.142;17.962;2024-03-02T06:33:43;32.10;;;19.60;;
77018;SDS011;66044;53.142;17.962;2024-03-02T06:36:09;40.90;;;22.00;;
77018;SDS011;66044;53.142;17.962;2024-03-02T06:38:37;38.60;;;22.50;;
77018;SDS011;66044;53.142;17.962;2024-03-02T06:41:03;36.50;;;21.80;;
77018;SDS011;66044;53.142;17.962;2024-03-02T06:43:29;37.90;;;21.80;;
77018;SDS011;66044;53.142;17.962;2024-03-02T06:45:54;37.80;;;23.10;;
77018;SDS011;66044;53.142;17.962;2024-03-02T06:48:20;40.30;;;23.40;;
77018;SDS011;66044;53.142;17.962;2024-03-02T06:50:46;29.80;;;17.20;;
77018;SDS011;66044;53.142;17.962;2024-03-02T06:53:16;34.20;;;19.60;;
77018;SDS011;66044;53.142;17.962;2024-03-02T06:55:45;36.20;;;21.40;;
77018;SDS011;66044;53.142;17.962;2024-03-02T06:58:14;34.30;;;20.40;;
77018;SDS011;66044;53.142;17.962;2024-03-02T07:00:41;31.80;;;18.80;;
77018;SDS011;66044;53.142;17.962;2024-03-02T07:03:07;30.30;;;19.00;;
77018;SDS011;66044;53.142;17.962;2024-03-02T07:05:35;28.30;;;17.20;;
77018;SDS011;66044;53.142;17.962;2024-03-02T07:08:01;33.50;;;20.60;;
77018;SDS011;66044;53.142;17.962;2024-03-02T07:10:28;28.70;;;18.60;;
77018;SDS011;66044;53.142;17.962;2024-03-02T07:12:54;32.90;;;19.10;;
77018;SDS011;66044;53.142;17.962;2024-03-02T07:15:19;27.40;;;16.90;;
77018;SDS011;66044;53.142;17.962;2024-03-02T07:18:10;32.70;;;19.50;;
77018;SDS011;66044;53.142;17.962;2024-03-02T07:20:36;38.00;;;21.20;;
77018;SDS011;66044;53.142;17.962;2024-03-02T07:23:07;38.00;;;22.60;;
77018;SDS011;66044;53.142;17.962;2024-03-02T07:25:32;35.50;;;20.00;;
77018;SDS011;66044;53.142;17.962;2024-03-02T07:27:58;35.30;;;20.80;;
77018;SDS011;66044;53.142;17.962;2024-03-02T07:30:24;30.70;;;18.80;;
77018;SDS011;66044;53.142;17.962;2024-03-02T07:32:50;38.00;;;21.90;;
77018;SDS011;66044;53.142;17.962;2024-03-02T07:35:16;35.70;;;20.70;;
77018;SDS011;66044;53.142;17.962;2024-03-02T07:37:43;33.80;;;20.00;;
77018;SDS011;66044;53.142;17.962;2024-03-02T07:40:10;35.40;;;19.70;;
77018;SDS011;66044;53.142;17.962;2024-03-02T07:42:37;35.20;;;21.60;;
77018;SDS011;66044;53.142;17.962;2024-03-02T07:45:05;32.70;;;18.50;;
77018;SDS011;66044;53.142;17.962;2024-03-02T07:47:35;36.40;;;19.90;;
77018;SDS011;66044;53.142;17.962;2024-03-02T07:50:01;35.60;;;20.30;;
77018;SDS011;66044;53.142;17.962;2024-03-02T07:52:27;33.30;;;20.30;;
77018;SDS011;66044;53.142;17.962;2024-03-02T07:54:53;39.80;;;21.80;;
77018;SDS011;66044;53.142;17.962;2024-03-02T07:57:19;33.00;;;20.20;;
77018;SDS011;66044;53.142;17.962;2024-03-02T07:59:45;32.30;;;20.40;;
77018;SDS011;66044;53.142;17.962;2024-03-02T08:02:11;33.10;;;20.50;;
77018;SDS011;66044;53.142;17.962;2024-03-02T08:04:38;30.60;;;19.20;;
77018;SDS011;66044;53.142;17.962;2024-03-02T08:07:04;34.90;;;20.60;;
77018;SDS011;66044;53.142;17.962;2024-03-02T08:09:30;34.30;;;20.70;;
77018;SDS011;66044;53.142;17.962;2024-03-02T08:11:56;32.10;;;20.40;;
77018;SDS011;66044;53.142;17.962;2024-03-02T08:14:23;27.20;;;17.80;;
77018;SDS011;66044;53.142;17.962;2024-03-02T08:16:51;30.40;;;18.70;;
77018;SDS011;66044;53.142;17.962;2024-03-02T08:19:17;29.20;;;19.20;;
77018;SDS011;66044;53.142;17.962;2024-03-02T08:21:43;32.70;;;19.50;;
77018;SDS011;66044;53.142;17.962;2024-03-02T08:24:10;26.60;;;17.40;;
77018;SDS011;66044;53.142;17.962;2024-03-02T08:26:35;24.60;;;14.90;;
77018;SDS011;66044;53.142;17.962;2024-03-02T08:29:02;27.40;;;18.80;;
77018;SDS011;66044;53.142;17.962;2024-03-02T08:31:29;27.80;;;17.40;;
77018;SDS011;66044;53.142;17.962;2024-03-02T08:33:55;25.80;;;16.70;;
77018;SDS011;66044;53.142;17.962;2024-03-02T08:36:23;29.00;;;19.20;;
77018;SDS011;66044;53.142;17.962;2024-03-02T08:38:49;29.50;;;19.00;;
77018;SDS011;66044;53.142;17.962;2024-03-02T08:41:15;31.00;;;17.80;;
77018;SDS011;66044;53.142;17.962;2024-03-02T08:43:42;28.10;;;17.30;;
77018;SDS011;66044;53.142;17.962;2024-03-02T08:46:08;24.80;;;14.90;;
77018;SDS011;66044;53.142;17.962;2024-03-02T08:48:34;20.70;;;13.10;;
77018;SDS011;66044;53.142;17.962;2024-03-02T08:51:00;20.00;;;12.70;;
77018;SDS011;66044;53.142;17.962;2024-03-02T08:53:26;23.00;;;14.20;;
77018;SDS011;66044;53.142;17.962;2024-03-02T08:55:51;26.30;;;16.90;;
77018;SDS011;66044;53.142;17.962;2024-03-02T08:58:17;25.60;;;15.50;;
77018;SDS011;66044;53.142;17.962;2024-03-02T09:00:43;25.20;;;15.30;;
77018;SDS011;66044;53.142;17.962;2024-03-02T09:03:09;29.80;;;18.20;;
77018;SDS011;66044;53.142;17.962;2024-03-02T09:05:36;25.60;;;17.10;;
77018;SDS011;66044;53.142;17.962;2024-03-02T09:08:01;28.40;;;17.70;;
77018;SDS011;66044;53.142;17.962;2024-03-02T09:10:29;25.50;;;15.80;;
77018;SDS011;66044;53.142;17.962;2024-03-02T09:12:55;25.80;;;16.90;;
77018;SDS011;66044;53.142;17.962;2024-03-02T09:15:21;24.70;;;15.60;;
77018;SDS011;66044;53.142;17.962;2024-03-02T09:17:46;23.30;;;15.20;;
77018;SDS011;66044;53.142;17.962;2024-03-02T09:20:12;25.50;;;16.80;;
77018;SDS011;66044;53.142;17.962;2024-03-02T09:22:39;27.50;;;17.40;;
77018;SDS011;66044;53.142;17.962;2024-03-02T09:25:05;23.00;;;15.20;;
77018;SDS011;66044;53.142;17.962;2024-03-02T09:27:37;23.80;;;15.00;;
77018;SDS011;66044;53.142;17.962;2024-03-02T09:30:04;25.10;;;15.80;;
77018;SDS011;66044;53.142;17.962;2024-03-02T09:32:33;29.50;;;17.60;;
77018;SDS011;66044;53.142;17.962;2024-03-02T09:34:59;25.90;;;16.50;;
77018;SDS011;66044;53.142;17.962;2024-03-02T09:37:25;29.20;;;18.50;;
77018;SDS011;66044;53.142;17.962;2024-03-02T09:39:50;28.00;;;17.50;;
77018;SDS011;66044;53.142;17.962;2024-03-02T09:42:17;26.90;;;15.60;;
77018;SDS011;66044;53.142;17.962;2024-03-02T09:44:43;30.30;;;17.60;;
77018;SDS011;66044;53.142;17.962;2024-03-02T09:47:09;23.30;;;15.10;;
77018;SDS011;66044;53.142;17.962;2024-03-02T09:49:35;24.10;;;15.10;;
77018;SDS011;66044;53.142;17.962;2024-03-02T09:52:01;29.10;;;17.20;;
77018;SDS011;66044;53.142;17.962;2024-03-02T09:54:30;28.80;;;16.70;;
77018;SDS011;66044;53.142;17.962;2024-03-02T09:56:56;29.00;;;18.30;;
77018;SDS011;66044;53.142;17.962;2024-03-02T09:59:22;28.80;;;17.10;;
77018;SDS011;66044;53.142;17.962;2024-03-02T10:01:58;30.40;;;17.80;;
77018;SDS011;66044;53.142;17.962;2024-03-02T10:04:28;29.90;;;16.60;;
77018;SDS011;66044;53.142;17.962;2024-03-02T10:09:42;27.80;;;17.40;;
77018;SDS011;66044;53.142;17.962;2024-03-02T10:12:10;26.50;;;17.20;;
77018;SDS011;66044;53.142;17.962;2024-03-02T10:14:38;27.80;;;16.00;;
77018;SDS011;66044;53.142;17.962;2024-03-02T10:17:05;25.50;;;15.60;;
77018;SDS011;66044;53.142;17.962;2024-03-02T10:19:32;23.40;;;15.40;;
77018;SDS011;66044;53.142;17.962;2024-03-02T10:22:00;22.30;;;14.30;;
77018;SDS011;66044;53.142;17.962;2024-03-02T10:24:34;21.10;;;13.50;;
77018;SDS011;66044;53.142;17.962;2024-03-02T10:27:15;27.20;;;14.60;;
77018;SDS011;66044;53.142;17.962;2024-03-02T10:29:42;27.80;;;19.20;;
77018;SDS011;66044;53.142;17.962;2024-03-02T10:32:12;24.50;;;15.10;;
77018;SDS011;66044;53.142;17.962;2024-03-02T10:34:42;24.00;;;14.90;;
77018;SDS011;66044;53.142;17.962;2024-03-02T10:37:13;22.50;;;15.00;;
77018;SDS011;66044;53.142;17.962;2024-03-02T10:39:40;22.60;;;14.40;;
77018;SDS011;66044;53.142;17.962;2024-03-02T10:42:06;25.70;;;14.60;;
77018;SDS011;66044;53.142;17.962;2024-03-02T10:44:33;26.10;;;17.10;;
77018;SDS011;66044;53.142;17.962;2024-03-02T10:47:02;24.80;;;15.90;;
77018;SDS011;66044;53.142;17.962;2024-03-02T10:49:30;27.90;;;16.00;;
77018;SDS011;66044;53.142;17.962;2024-03-02T10:52:00;28.60;;;16.80;;
77018;SDS011;66044;53.142;17.962;2024-03-02T10:54:27;26.90;;;16.90;;
77018;SDS011;66044;53.142;17.962;2024-03-02T10:56:55;25.30;;;14.60;;
77018;SDS011;66044;53.142;17.962;2024-03-02T10:59:28;28.00;;;16.90;;
77018;SDS011;66044;53.142;17.962;2024-03-02T11:01:59;26.50;;;16.50;;
77018;SDS011;66044;53.142;17.962;2024-03-02T11:04:27;25.70;;;15.80;;
77018;SDS011;66044;53.142;17.962;2024-03-02T11:07:07;19.80;;;13.40;;
77018;SDS011;66044;53.142;17.962;2024-03-02T11:09:42;28.60;;;17.60;;
77018;SDS011;66044;53.142;17.962;2024-03-02T11:15:14;27.20;;;16.90;;
77018;SDS011;66044;53.142;17.962;2024-03-02T11:17:46;30.40;;;18.40;;
77018;SDS011;66044;53.142;17.962;2024-03-02T11:20:14;22.90;;;14.30;;
77018;SDS011;66044;53.142;17.962;2024-03-02T11:22:40;23.40;;;14.90;;
77018;SDS011;66044;53.142;17.962;2024-03-02T11:25:06;24.20;;;14.20;;
77018;SDS011;66044;53.142;17.962;2024-03-02T11:32:59;31.00;;;19.10;;
77018;SDS011;66044;53.142;17.962;2024-03-02T11:35:26;23.00;;;14.60;;
77018;SDS011;66044;53.142;17.962;2024-03-02T11:37:54;24.20;;;15.50;;
77018;SDS011;66044;53.142;17.962;2024-03-02T11:40:22;26.90;;;15.80;;
77018;SDS011;66044;53.142;17.962;2024-03-02T11:42:50;27.80;;;18.50;;
77018;SDS011;66044;53.142;17.962;2024-03-02T11:45:26;24.50;;;14.50;;
77018;SDS011;66044;53.142;17.962;2024-03-02T11:47:57;24.90;;;15.30;;
77018;SDS011;66044;53.142;17.962;2024-03-02T11:50:36;29.80;;;17.70;;
77018;SDS011;66044;53.142;17.962;2024-03-02T11:53:07;27.00;;;17.30;;
77018;SDS011;66044;53.142;17.962;2024-03-02T11:55:36;25.40;;;15.90;;
77018;SDS011;66044;53.142;17.962;2024-03-02T11:58:03;26.10;;;15.80;;
77018;SDS011;66044;53.142;17.962;2024-03-02T12:00:30;22.90;;;13.60;;
77018;SDS011;66044;53.142;17.962;2024-03-02T12:03:03;24.50;;;15.30;;
77018;SDS011;66044;53.142;17.962;2024-03-02T12:05:30;26.30;;;16.40;;
77018;SDS011;66044;53.142;17.962;2024-03-02T12:07:57;29.30;;;18.80;;
77018;SDS011;66044;53.142;17.962;2024-03-02T12:10:28;28.90;;;17.70;;
77018;SDS011;66044;53.142;17.962;2024-03-02T12:12:57;29.60;;;16.70;;
77018;SDS011;66044;53.142;17.962;2024-03-02T12:15:31;25.00;;;15.60;;
77018;SDS011;66044;53.142;17.962;2024-03-02T12:17:59;21.70;;;14.60;;
77018;SDS011;66044;53.142;17.962;2024-03-02T12:20:28;21.60;;;14.00;;
77018;SDS011;66044;53.142;17.962;2024-03-02T12:22:57;24.70;;;15.70;;
77018;SDS011;66044;53.142;17.962;2024-03-02T12:25:26;23.00;;;14.30;;
77018;SDS011;66044;53.142;17.962;2024-03-02T12:27:54;30.70;;;17.50;;
77018;SDS011;66044;53.142;17.962;2024-03-02T12:30:22;30.90;;;19.30;;
77018;SDS011;66044;53.142;17.962;2024-03-02T12:32:49;26.20;;;17.20;;
77018;SDS011;66044;53.142;17.962;2024-03-02T12:35:16;27.60;;;17.70;;
77018;SDS011;66044;53.142;17.962;2024-03-02T12:37:44;26.80;;;16.50;;
77018;SDS011;66044;53.142;17.962;2024-03-02T12:40:11;27.10;;;17.20;;
77018;SDS011;66044;53.142;17.962;2024-03-02T12:42:38;25.50;;;15.90;;
77018;SDS011;66044;53.142;17.962;2024-03-02T12:45:06;26.10;;;16.80;;
77018;SDS011;66044;53.142;17.962;2024-03-02T12:47:33;28.70;;;18.20;;
77018;SDS011;66044;53.142;17.962;2024-03-02T12:50:02;25.30;;;15.30;;
77018;SDS011;66044;53.142;17.962;2024-03-02T12:52:29;29.80;;;19.70;;
77018;SDS011;66044;53.142;17.962;2024-03-02T12:55:01;25.20;;;16.70;;
77018;SDS011;66044;53.142;17.962;2024-03-02T12:57:30;26.40;;;16.00;;
77018;SDS011;66044;53.142;17.962;2024-03-02T13:00:00;26.30;;;16.90;;
77018;SDS011;66044;53.142;17.962;2024-03-02T13:02:30;27.10;;;16.60;;
77018;SDS011;66044;53.142;17.962;2024-03-02T13:04:59;23.70;;;14.20;;
77018;SDS011;66044;53.142;17.962;2024-03-02T13:07:25;28.60;;;18.60;;
77018;SDS011;66044;53.142;17.962;2024-03-02T13:09:52;28.20;;;17.50;;
77018;SDS011;66044;53.142;17.962;2024-03-02T13:12:20;28.50;;;17.60;;
77018;SDS011;66044;53.142;17.962;2024-03-02T13:14:53;25.40;;;15.90;;
77018;SDS011;66044;53.142;17.962;2024-03-02T13:17:19;29.50;;;17.40;;
77018;SDS011;66044;53.142;17.962;2024-03-02T13:19:52;32.30;;;19.90;;
77018;SDS011;66044;53.142;17.962;2024-03-02T13:22:22;31.40;;;19.60;;
77018;SDS011;66044;53.142;17.962;2024-03-02T13:24:49;28.60;;;19.20;;
77018;SDS011;66044;53.142;17.962;2024-03-02T13:27:15;33.00;;;19.40;;
77018;SDS011;66044;53.142;17.962;2024-03-02T13:29:42;28.50;;;18.10;;
77018;SDS011;66044;53.142;17.962;2024-03-02T13:32:08;27.50;;;17.70;;
77018;SDS011;66044;53.142;17.962;2024-03-02T13:34:35;32.30;;;18.80;;
77018;SDS011;66044;53.142;17.962;2024-03-02T13:37:03;32.70;;;20.70;;
77018;SDS011;66044;53.142;17.962;2024-03-02T13:39:31;29.80;;;18.70;;
77018;SDS011;66044;53.142;17.962;2024-03-02T13:41:57;27.30;;;16.80;;
77018;SDS011;66044;53.142;17.962;2024-03-02T13:44:31;31.10;;;19.60;;
77018;SDS011;66044;53.142;17.962;2024-03-02T13:46:58;29.50;;;19.10;;
77018;SDS011;66044;53.142;17.962;2024-03-02T13:49:25;27.50;;;17.90;;
77018;SDS011;66044;53.142;17.962;2024-03-02T13:51:59;33.30;;;20.20;;
77018;SDS011;66044;53.142;17.962;2024-03-02T13:54:28;31.70;;;19.90;;
77018;SDS011;66044;53.142;17.962;2024-03-02T13:56:59;29.40;;;17.80;;
77018;SDS011;66044;53.142;17.962;2024-03-02T13:59:25;26.30;;;17.00;;
77018;SDS011;66044;53.142;17.962;2024-03-02T14:02:00;31.10;;;19.20;;
77018;SDS011;66044;53.142;17.962;2024-03-02T14:04:26;26.50;;;17.40;;
77018;SDS011;66044;53.142;17.962;2024-03-02T14:06:52;32.80;;;20.20;;
77018;SDS011;66044;53.142;17.962;2024-03-02T14:09:18;29.80;;;18.80;;
77018;SDS011;66044;53.142;17.962;2024-03-02T14:11:46;36.20;;;21.40;;
77018;SDS011;66044;53.142;17.962;2024-03-02T14:14:11;34.20;;;20.00;;
77018;SDS011;66044;53.142;17.962;2024-03-02T14:16:37;34.90;;;22.70;;
77018;SDS011;66044;53.142;17.962;2024-03-02T14:19:03;35.20;;;21.20;;
77018;SDS011;66044;53.142;17.962;2024-03-02T14:21:30;39.20;;;23.70;;
77018;SDS011;66044;53.142;17.962;2024-03-02T14:23:56;36.20;;;21.90;;